Time;durP1;ratioP1;P1;durP2;ratioP2;P2;SDS_P1;SDS_P2;PMS_P1;PMS_P2;Temp;Humidity;BMP_temperature;BMP_pressure;BME280_temperature;BME280_humidity;BME280_pressure;Samples;Min_cycle;Max_cycle;Signal;HPM_P1;HPM_P2
2022/11/06 00:01:23;;;;;;;;;6.33;6.33;;;;;11.50;68.82;100874.00;5075694;28;45497;-62
2022/11/06 00:03:51;;;;;;;;;8.00;7.00;;;;;11.48;68.60;100873.19;5073056;28;45736;-60
2022/11/06 00:09:05;;;;;;;;;6.00;6.00;;;;;11.45;68.99;100851.38;5069013;28;45552;-62
2022/11/06 00:11:30;;;;;;;;;9.67;9.00;;;;;11.43;68.43;100843.50;5057606;28;45964;-62
2022/11/06 00:13:56;;;;;;;;;10.00;9.33;;;;;11.42;69.10;100840.94;5067956;28;45470;-62
2022/11/06 00:16:22;;;;;;;;;10.00;10.00;;;;;11.40;68.90;100843.63;5076119;28;45529;-60
2022/11/06 00:18:48;;;;;;;;;7.33;6.67;;;;;11.37;68.49;100850.78;5074930;28;46054;-62
2022/11/06 00:21:16;;;;;;;;;7.67;6.67;;;;;11.39;68.57;100862.97;5076647;28;45398;-62
2022/11/06 00:23:43;;;;;;;;;6.67;6.67;;;;;11.40;67.86;100867.31;5074309;28;45398;-62
2022/11/06 00:26:13;;;;;;;;;8.00;8.00;;;;;11.43;68.73;100880.38;5074520;28;45542;-61
2022/11/06 00:28:39;;;;;;;;;8.00;8.00;;;;;11.45;68.85;100872.44;5073465;28;46118;-60
2022/11/06 00:31:07;;;;;;;;;8.33;7.67;;;;;11.43;68.39;100869.84;5073950;28;45696;-60
2022/11/06 00:33:33;;;;;;;;;8.67;8.67;;;;;11.44;68.20;100871.56;5061805;28;45571;-60
2022/11/06 00:36:02;;;;;;;;;8.00;7.33;;;;;11.44;68.43;100865.44;5073484;28;45576;-60
2022/11/06 00:38:28;;;;;;;;;7.67;7.67;;;;;11.49;68.82;100869.63;5074419;28;45379;-60
2022/11/06 00:40:53;;;;;;;;;7.33;7.33;;;;;11.49;68.84;100858.22;5072214;28;45565;-60
2022/11/06 00:43:18;;;;;;;;;7.67;7.67;;;;;11.50;67.78;100852.91;5074784;28;45482;-60
2022/11/06 00:45:44;;;;;;;;;8.00;8.00;;;;;11.49;68.39;100858.22;5076701;28;45514;-60
2022/11/06 00:48:09;;;;;;;;;7.00;7.00;;;;;11.50;67.93;100854.69;5073763;28;45905;-61
2022/11/06 00:50:34;;;;;;;;;9.00;8.00;;;;;11.47;68.31;100845.13;5075295;28;48621;-60
2022/11/06 00:53:00;;;;;;;;;10.33;8.00;;;;;11.50;67.97;100857.34;5075670;28;45399;-60
2022/11/06 00:55:25;;;;;;;;;6.67;6.67;;;;;11.49;67.71;100839.78;5056637;28;47145;-61
2022/11/06 00:57:51;;;;;;;;;8.00;6.67;;;;;11.52;67.72;100838.81;5066766;28;45602;-61
2022/11/06 01:00:17;;;;;;;;;8.00;8.00;;;;;11.51;67.76;100830.06;5075129;28;45473;-60
2022/11/06 01:02:44;;;;;;;;;7.67;6.33;;;;;11.49;67.91;100818.72;5055751;28;45513;-61
2022/11/06 01:05:09;;;;;;;;;7.33;7.33;;;;;11.50;67.82;100831.00;5072543;28;45493;-61
2022/11/06 01:07:35;;;;;;;;;7.00;7.00;;;;;11.47;67.67;100834.59;5069396;28;46129;-61
2022/11/06 01:10:00;;;;;;;;;6.00;6.00;;;;;11.46;68.50;100835.50;5070548;28;45489;-61
2022/11/06 01:12:25;;;;;;;;;8.00;8.00;;;;;11.48;68.24;100825.78;5073927;28;45553;-61
2022/11/06 01:14:51;;;;;;;;;7.33;7.00;;;;;11.50;67.88;100821.31;5071571;28;45613;-61
2022/11/06 01:17:16;;;;;;;;;7.67;7.00;;;;;11.53;68.69;100804.53;5074678;28;45470;-61
2022/11/06 01:19:41;;;;;;;;;5.00;5.00;;;;;11.53;67.87;100801.06;5073144;28;45445;-61
2022/11/06 01:22:07;;;;;;;;;7.00;6.00;;;;;11.54;68.38;100795.72;5065504;28;45367;-61
2022/11/06 01:24:33;;;;;;;;;6.00;5.00;;;;;11.56;68.29;100809.69;5073989;28;45581;-61
2022/11/06 01:26:59;;;;;;;;;5.33;5.33;;;;;11.53;67.51;100807.19;5074052;28;45508;-61
2022/11/06 01:29:24;;;;;;;;;7.33;7.33;;;;;11.54;68.38;100808.88;5074832;28;45605;-61
2022/11/06 01:31:49;;;;;;;;;8.00;8.00;;;;;11.58;67.45;100805.25;5075300;28;45502;-61
2022/11/06 01:34:16;;;;;;;;;7.67;7.67;;;;;11.60;68.16;100805.16;5071239;28;45438;-61
2022/11/06 01:36:41;;;;;;;;;7.67;7.00;;;;;11.61;67.83;100807.75;5074634;28;45592;-61
2022/11/06 01:39:10;;;;;;;;;6.00;6.00;;;;;11.66;68.14;100804.94;5074392;28;49534;-61
2022/11/06 01:41:39;;;;;;;;;6.67;5.67;;;;;11.68;66.82;100805.75;5072727;28;45546;-60
2022/11/06 01:44:06;;;;;;;;;6.00;5.00;;;;;11.67;66.83;100812.78;5055914;28;45491;-61
2022/11/06 01:46:34;;;;;;;;;7.00;7.00;;;;;11.62;66.89;100805.97;5074587;28;46629;-61
2022/11/06 01:49:04;;;;;;;;;6.00;6.00;;;;;11.61;67.07;100802.50;5073195;28;45515;-61
2022/11/06 01:51:35;;;;;;;;;7.67;7.67;;;;;11.62;67.87;100803.34;5074862;28;45442;-61
2022/11/06 01:54:05;;;;;;;;;5.67;5.67;;;;;11.62;67.56;100804.19;5074934;28;45494;-61
2022/11/06 01:56:31;;;;;;;;;5.00;5.00;;;;;11.59;67.92;100799.03;5073963;28;45682;-61
2022/11/06 01:58:56;;;;;;;;;6.00;6.00;;;;;11.60;67.23;100792.84;5074233;28;45433;-62
2022/11/06 02:01:22;;;;;;;;;5.00;5.00;;;;;11.59;67.87;100793.78;5073525;28;45488;-61
2022/11/06 02:04:07;;;;;;;;;6.00;5.33;;;;;11.60;67.66;100776.19;5069775;28;45691;-62
2022/11/06 02:06:33;;;;;;;;;6.00;6.00;;;;;11.63;67.56;100776.97;5062792;28;45454;-62
2022/11/06 02:08:59;;;;;;;;;5.00;5.00;;;;;11.60;67.03;100765.66;5070183;28;45464;-61
2022/11/06 02:11:25;;;;;;;;;6.33;6.33;;;;;11.62;67.47;100772.59;5070748;28;45443;-61
2022/11/06 02:14:16;;;;;;;;;6.00;6.00;;;;;11.61;67.85;100762.13;5064309;28;45661;-61
2022/11/06 02:16:50;;;;;;;;;6.67;6.00;;;;;11.61;67.40;100756.84;5068818;28;45488;-61
2022/11/06 02:19:54;;;;;;;;;5.67;5.67;;;;;11.60;67.98;100749.84;5073721;28;45479;-62
2022/11/06 02:22:44;;;;;;;;;7.00;6.00;;;;;11.60;67.09;100739.31;4982901;28;45491;-62
2022/11/06 02:25:42;;;;;;;;;7.67;7.00;;;;;11.58;67.41;100714.78;4955200;28;45544;-62
2022/11/06 02:28:33;;;;;;;;;6.67;6.67;;;;;11.56;67.78;100714.88;5054960;28;46105;-61
2022/11/06 02:31:04;;;;;;;;;7.00;7.00;;;;;11.58;67.13;100705.13;5076662;28;45480;-61
2022/11/06 02:33:35;;;;;;;;;7.67;6.67;;;;;11.58;67.40;100704.25;5074419;28;45407;-61
2022/11/06 02:36:06;;;;;;;;;6.00;6.00;;;;;11.51;67.82;100714.19;5063461;28;45380;-61
2022/11/06 02:38:37;;;;;;;;;8.00;7.33;;;;;11.51;67.67;100719.44;5055800;28;46845;-61
2022/11/06 02:41:06;;;;;;;;;4.67;4.67;;;;;11.55;66.66;100715.75;5075331;28;45515;-61
2022/11/06 02:43:38;;;;;;;;;5.33;5.00;;;;;11.54;67.07;100715.84;5074847;28;45467;-62
2022/11/06 02:46:27;;;;;;;;;5.67;5.67;;;;;11.55;67.09;100715.75;5067858;28;45447;-61
2022/11/06 02:49:07;;;;;;;;;5.00;5.00;;;;;11.55;66.79;100723.66;5065496;28;46234;-61
2022/11/06 02:51:37;;;;;;;;;6.00;6.00;;;;;11.57;67.15;100732.38;5070371;28;45364;-61
2022/11/06 02:54:05;;;;;;;;;7.00;6.00;;;;;11.60;67.95;100713.81;5070104;28;45557;-61
2022/11/06 02:56:40;;;;;;;;;5.00;5.00;;;;;11.57;66.96;100706.03;5071042;28;45449;-61
2022/11/06 02:59:13;;;;;;;;;6.33;6.33;;;;;11.58;66.54;100725.34;5064828;28;46358;-61
2022/11/06 03:01:47;;;;;;;;;5.00;5.00;;;;;11.59;67.21;100725.28;5069767;28;45505;-61
2022/11/06 03:04:25;;;;;;;;;6.67;6.67;;;;;11.59;66.68;100716.53;5074617;28;45387;-62
2022/11/06 03:06:58;;;;;;;;;4.00;4.00;;;;;11.62;67.11;100717.25;5078447;28;45438;-61
2022/11/06 03:09:29;;;;;;;;;6.00;5.33;;;;;11.63;67.31;100711.09;5062953;28;46542;-61
2022/11/06 03:12:10;;;;;;;;;7.67;6.00;;;;;11.59;67.20;100709.47;5070233;28;45538;-61
2022/11/06 03:15:01;;;;;;;;;6.67;6.00;;;;;11.59;67.17;100706.00;5053802;28;45536;-61
2022/11/06 03:17:37;;;;;;;;;5.00;5.00;;;;;11.56;67.02;100692.94;5065032;28;45576;-61
2022/11/06 03:20:30;;;;;;;;;9.67;6.00;;;;;11.49;66.78;100679.97;5075611;28;45568;-61
2022/11/06 03:23:21;;;;;;;;;4.33;4.33;;;;;11.47;66.95;100679.22;5027486;28;45605;-61
2022/11/06 03:25:57;;;;;;;;;6.00;6.00;;;;;11.44;67.16;100681.06;5076574;28;45627;-61
2022/11/06 03:28:33;;;;;;;;;6.00;6.00;;;;;11.42;67.46;100686.41;5074602;28;45472;-61
2022/11/06 03:31:04;;;;;;;;;4.67;4.67;;;;;11.43;67.08;100684.63;5075551;28;45528;-61
2022/11/06 03:33:39;;;;;;;;;5.33;5.33;;;;;11.43;67.90;100672.31;5076831;28;45470;-61
2022/11/06 03:36:32;;;;;;;;;4.00;4.00;;;;;11.42;66.91;100672.41;5076596;28;45362;-61
2022/11/06 03:39:05;;;;;;;;;6.00;6.00;;;;;11.40;67.62;100661.91;5062944;28;45459;-61
2022/11/06 03:41:44;;;;;;;;;5.33;5.33;;;;;11.42;67.17;100667.13;5066585;28;45738;-61
2022/11/06 03:44:14;;;;;;;;;6.67;6.00;;;;;11.40;67.51;100661.06;5069910;28;45464;-61
2022/11/06 03:46:45;;;;;;;;;5.00;5.00;;;;;11.39;66.92;100662.84;5066376;28;45502;-61
2022/11/06 03:49:17;;;;;;;;;6.33;5.33;;;;;11.38;67.45;100666.38;5049873;28;45523;-61
2022/11/06 03:51:52;;;;;;;;;5.00;5.00;;;;;11.38;67.12;100679.53;5074391;28;46086;-61
2022/11/06 03:54:24;;;;;;;;;7.33;5.33;;;;;11.36;66.76;100669.97;5071365;28;45572;-61
2022/11/06 03:57:04;;;;;;;;;4.33;4.33;;;;;11.33;66.83;100656.94;5061827;28;45461;-61
2022/11/06 03:59:34;;;;;;;;;4.67;4.67;;;;;11.30;67.14;100636.84;5076020;28;45486;-61
2022/11/06 04:02:01;;;;;;;;;8.00;5.33;;;;;11.31;67.43;100635.94;5069476;28;45474;-61
2022/11/06 04:04:34;;;;;;;;;4.00;4.00;;;;;11.31;67.33;100641.19;5074850;28;45570;-61
2022/11/06 04:07:06;;;;;;;;;6.33;4.00;;;;;11.30;67.54;100636.84;5076540;28;45465;-61
2022/11/06 04:15:13;;;;;;;;;3.67;3.67;;;;;11.26;68.04;100629.97;5068970;28;45492;-61
2022/11/06 04:17:40;;;;;;;;;6.00;6.00;;;;;11.24;67.46;100624.75;5073168;28;45417;-61
2022/11/06 04:20:09;;;;;;;;;6.33;6.33;;;;;11.25;67.75;100618.56;5071879;28;45552;-62
2022/11/06 04:22:51;;;;;;;;;9.67;6.00;;;;;11.26;67.72;100614.19;5074886;28;46151;-62
2022/11/06 04:28:50;;;;;;;;;6.67;5.67;;;;;11.30;67.54;100625.44;5075091;28;45369;-61
2022/11/06 04:31:54;;;;;;;;;5.00;5.00;;;;;11.26;67.54;100622.09;5066414;28;45486;-62
2022/11/06 04:34:39;;;;;;;;;6.00;5.33;;;;;11.22;67.23;100621.31;5053713;28;46437;-61
2022/11/06 04:37:10;;;;;;;;;6.33;4.00;;;;;11.22;67.58;100629.22;5075821;28;45384;-61
2022/11/06 04:40:04;;;;;;;;;6.67;5.00;;;;;11.19;67.18;100621.44;5076181;28;45412;-61
2022/11/06 04:42:37;;;;;;;;;5.33;5.33;;;;;11.20;68.03;100623.19;5073270;28;45466;-63
2022/11/06 04:45:09;;;;;;;;;5.00;4.00;;;;;11.21;67.52;100624.88;5074338;28;46062;-62
2022/11/06 04:47:37;;;;;;;;;7.33;7.33;;;;;11.23;67.64;100616.91;5076094;28;45645;-61
2022/11/06 04:50:07;;;;;;;;;7.67;6.00;;;;;11.22;67.65;100618.69;5073348;28;45380;-61
2022/11/06 04:52:33;;;;;;;;;6.00;4.00;;;;;11.20;67.55;100617.91;5071815;28;45367;-61
2022/11/06 04:54:58;;;;;;;;;6.00;6.00;;;;;11.19;67.71;100608.28;5076187;28;45378;-62
2022/11/06 04:57:25;;;;;;;;;6.00;4.67;;;;;11.16;67.45;100603.13;5076310;28;45447;-61
2022/11/06 04:59:51;;;;;;;;;7.00;6.33;;;;;11.18;67.08;100606.56;5076097;28;45379;-61
2022/11/06 05:02:16;;;;;;;;;3.33;3.33;;;;;11.17;67.14;100607.47;5072088;28;45521;-61
2022/11/06 05:04:42;;;;;;;;;7.00;4.33;;;;;11.17;67.11;100596.94;5073114;28;46233;-62
2022/11/06 05:07:08;;;;;;;;;7.67;6.33;;;;;11.16;67.05;100592.59;5069193;28;45481;-61
2022/11/06 05:09:33;;;;;;;;;6.67;6.67;;;;;11.17;67.59;100596.09;5075413;28;45615;-62
2022/11/06 05:11:59;;;;;;;;;5.00;3.67;;;;;11.16;67.48;100595.25;5071968;28;45646;-61
2022/11/06 05:14:24;;;;;;;;;4.33;4.33;;;;;11.17;67.61;100590.81;5048347;28;46139;-61
2022/11/06 05:16:49;;;;;;;;;6.33;5.67;;;;;11.16;67.07;100591.75;5069878;28;45532;-61
2022/11/06 05:19:15;;;;;;;;;8.67;5.67;;;;;11.14;67.08;100597.06;5065460;28;47113;-62
2022/11/06 05:24:24;;;;;;;;;4.33;4.33;;;;;11.15;66.59;100592.66;5061044;28;45482;-62
2022/11/06 05:26:49;;;;;;;;;7.00;4.67;;;;;11.19;66.40;100583.75;5074168;28;45403;-61
2022/11/06 05:29:14;;;;;;;;;4.33;4.33;;;;;11.20;67.48;100578.44;5069397;28;45481;-61
2022/11/06 05:31:40;;;;;;;;;8.67;6.00;;;;;11.19;67.15;100573.22;5069268;28;47159;-60
2022/11/06 05:34:06;;;;;;;;;7.33;5.00;;;;;11.21;67.19;100559.06;5074107;28;46499;-61
2022/11/06 05:36:31;;;;;;;;;4.00;4.00;;;;;11.20;66.94;100549.47;5074764;28;45579;-61
2022/11/06 05:38:57;;;;;;;;;5.67;4.67;;;;;11.17;66.69;100546.94;5054970;28;45496;-61
2022/11/06 05:41:22;;;;;;;;;5.00;5.00;;;;;11.19;66.19;100560.03;5074342;28;45433;-61
2022/11/06 05:43:47;;;;;;;;;7.00;7.00;;;;;11.17;66.35;100551.34;5074755;28;45473;-62
2022/11/06 05:46:12;;;;;;;;;6.00;5.00;;;;;11.17;66.81;100548.72;5073046;28;45532;-61
2022/11/06 05:48:38;;;;;;;;;6.00;6.00;;;;;11.14;66.61;100546.19;5075215;28;45395;-61
2022/11/06 05:51:05;;;;;;;;;6.67;6.67;;;;;11.12;66.20;100538.34;5069687;28;53755;-61
2022/11/06 05:53:32;;;;;;;;;6.33;5.00;;;;;11.12;66.20;100556.78;5066932;28;46637;-62
2022/11/06 05:55:58;;;;;;;;;9.33;7.67;;;;;11.08;66.14;100549.94;5069687;28;45565;-61
2022/11/06 05:58:23;;;;;;;;;4.33;4.33;;;;;11.06;66.88;100546.50;5074767;28;45669;-62
2022/11/06 06:00:49;;;;;;;;;4.67;4.67;;;;;11.06;67.39;100539.44;5075721;28;46934;-61
2022/11/06 06:03:14;;;;;;;;;6.00;6.00;;;;;11.09;67.22;100543.72;5078701;28;45500;-61
2022/11/06 06:05:39;;;;;;;;;4.00;4.00;;;;;11.11;67.34;100546.31;5073087;28;45504;-61
2022/11/06 06:08:05;;;;;;;;;6.00;6.00;;;;;11.14;66.50;100554.09;5079678;28;45487;-61
2022/11/06 06:10:31;;;;;;;;;6.00;5.00;;;;;11.13;66.76;100542.72;5074851;28;45521;-61
2022/11/06 06:12:56;;;;;;;;;6.00;5.00;;;;;11.11;66.37;100547.16;5078750;27;46151;-62
2022/11/06 06:15:21;;;;;;;;;3.67;3.67;;;;;11.09;66.09;100548.16;5070024;28;45553;-61
2022/11/06 06:17:47;;;;;;;;;4.00;4.00;;;;;11.08;66.15;100538.56;5077553;28;45423;-60
2022/11/06 06:20:12;;;;;;;;;5.00;5.00;;;;;11.08;66.04;100531.50;5078781;28;45499;-60
2022/11/06 06:22:38;;;;;;;;;7.00;5.67;;;;;11.04;66.91;100525.50;5077394;28;46672;-61
2022/11/06 06:25:04;;;;;;;;;6.67;6.67;;;;;11.06;66.68;100528.06;5064651;28;45578;-61
2022/11/06 06:27:30;;;;;;;;;8.33;7.00;;;;;11.03;66.06;100522.94;5078166;28;45292;-60
2022/11/06 06:29:55;;;;;;;;;4.67;4.67;;;;;11.01;66.06;100514.22;5078884;28;45381;-60
2022/11/06 06:32:21;;;;;;;;;5.00;4.00;;;;;10.99;67.12;100501.16;5072799;28;46280;-61
2022/11/06 06:34:46;;;;;;;;;7.33;7.33;;;;;10.97;66.49;100494.22;5078478;28;45514;-61
2022/11/06 06:37:11;;;;;;;;;6.33;6.33;;;;;10.95;67.11;100488.16;5060066;28;45703;-61
2022/11/06 06:39:37;;;;;;;;;5.00;5.00;;;;;10.94;66.36;100491.72;5075492;28;48217;-60
2022/11/06 06:42:02;;;;;;;;;6.67;6.67;;;;;10.94;66.75;100496.97;5071889;28;45494;-61
2022/11/06 06:44:27;;;;;;;;;5.67;5.67;;;;;10.95;66.96;100486.38;5075865;28;45529;-61
2022/11/06 06:46:53;;;;;;;;;6.00;6.00;;;;;10.96;66.58;100482.84;5076385;28;45453;-61
2022/11/06 06:49:18;;;;;;;;;7.33;6.67;;;;;10.97;66.58;100481.06;5078376;28;45429;-60
2022/11/06 06:51:46;;;;;;;;;6.33;6.33;;;;;11.00;66.24;100486.19;5065078;28;46341;-61
2022/11/06 06:54:12;;;;;;;;;6.00;6.00;;;;;10.99;66.29;100481.88;5077259;28;45415;-61
2022/11/06 06:56:37;;;;;;;;;5.33;4.00;;;;;11.00;66.48;100480.94;5067902;28;45634;-61
2022/11/06 06:59:02;;;;;;;;;3.33;3.33;;;;;10.96;66.46;100472.31;5064233;28;45550;-61
2022/11/06 07:01:28;;;;;;;;;7.00;6.00;;;;;10.98;67.08;100456.47;5075477;28;45721;-61
2022/11/06 07:03:53;;;;;;;;;5.33;5.33;;;;;10.96;66.12;100455.66;5075284;28;45461;-61
2022/11/06 07:06:19;;;;;;;;;7.33;6.00;;;;;10.95;66.56;100454.78;5074019;28;45544;-60
2022/11/06 07:08:44;;;;;;;;;6.67;6.00;;;;;10.98;65.95;100449.41;5078446;28;45453;-61
2022/11/06 07:11:10;;;;;;;;;5.00;5.00;;;;;10.98;66.61;100461.72;5075475;28;45637;-61
2022/11/06 07:13:36;;;;;;;;;9.33;6.67;;;;;10.99;65.79;100469.56;5058331;28;45446;-61
2022/11/06 07:16:06;;;;;;;;;6.00;6.00;;;;;11.01;65.76;100472.13;5076973;28;45308;-61
2022/11/06 07:18:32;;;;;;;;;7.33;7.33;;;;;11.02;66.43;100465.97;5067145;28;45550;-61
2022/11/06 07:20:58;;;;;;;;;4.67;4.67;;;;;11.04;66.70;100457.09;5075074;28;45535;-61
2022/11/06 07:23:23;;;;;;;;;7.00;5.00;;;;;11.08;65.85;100451.69;5076640;28;45387;-61
2022/11/06 07:25:55;;;;;;;;;5.00;5.00;;;;;11.09;66.02;100450.75;5075214;28;45438;-61
2022/11/06 07:28:20;;;;;;;;;6.33;5.67;;;;;11.08;66.48;100457.81;5076337;28;45493;-61
2022/11/06 07:30:46;;;;;;;;;7.33;6.67;;;;;11.11;65.65;100468.22;5074486;28;46189;-61
2022/11/06 07:33:11;;;;;;;;;6.00;6.00;;;;;11.13;66.30;100455.84;5077120;28;45481;-61
2022/11/06 07:35:37;;;;;;;;;8.00;7.00;;;;;11.15;65.11;100447.88;5053537;28;45505;-61
2022/11/06 07:38:06;;;;;;;;;7.00;6.00;;;;;11.14;66.02;100439.13;5075008;28;45619;-60
2022/11/06 07:40:32;;;;;;;;;4.00;4.00;;;;;11.11;65.72;100423.47;5067200;28;45536;-62
2022/11/06 07:43:09;;;;;;;;;3.67;3.00;;;;;11.11;65.06;100426.09;5069606;28;45434;-60
2022/11/06 07:45:36;;;;;;;;;4.67;4.67;;;;;11.10;65.37;100434.94;5076788;28;45518;-61
2022/11/06 07:48:02;;;;;;;;;7.00;6.33;;;;;11.13;65.43;100442.69;5076412;28;45616;-62
2022/11/06 07:50:28;;;;;;;;;4.67;4.67;;;;;11.12;65.27;100443.59;5074439;28;45425;-60
2022/11/06 07:52:54;;;;;;;;;5.33;5.00;;;;;11.15;65.95;100448.75;5075942;28;45491;-60
2022/11/06 07:55:19;;;;;;;;;6.67;6.33;;;;;11.15;65.23;100440.88;5077385;28;45383;-60
2022/11/06 07:57:45;;;;;;;;;5.33;4.00;;;;;11.14;65.57;100436.50;5074839;28;45498;-60
2022/11/06 08:00:11;;;;;;;;;3.00;3.00;;;;;11.17;65.96;100432.88;5076581;28;45500;-60
2022/11/06 08:02:36;;;;;;;;;5.00;4.33;;;;;11.14;66.02;100435.66;5075271;28;45411;-60
2022/11/06 08:05:02;;;;;;;;;3.67;3.67;;;;;11.11;65.51;100436.63;5076425;28;45541;-61
2022/11/06 08:07:27;;;;;;;;;3.33;3.33;;;;;11.13;65.46;100428.69;5077194;28;45450;-61
2022/11/06 08:09:53;;;;;;;;;4.67;4.67;;;;;11.14;65.85;100427.75;5075719;28;46386;-61
2022/11/06 08:12:18;;;;;;;;;8.00;7.67;;;;;11.13;65.08;100436.56;5075740;28;45441;-61
2022/11/06 08:14:43;;;;;;;;;4.33;4.33;;;;;11.13;65.25;100436.56;5076694;28;46045;-61
2022/11/06 08:17:09;;;;;;;;;5.67;5.67;;;;;11.17;65.25;100427.63;5075723;28;45438;-61
2022/11/06 08:19:34;;;;;;;;;5.00;5.00;;;;;11.17;64.65;100423.22;5074604;28;62643;-62
2022/11/06 08:21:59;;;;;;;;;4.00;4.00;;;;;11.16;65.78;100415.41;5074362;28;45588;-61
2022/11/06 08:24:25;;;;;;;;;4.33;4.33;;;;;11.16;64.98;100410.97;5070067;28;45443;-62
2022/11/06 08:26:50;;;;;;;;;4.67;4.67;;;;;11.16;65.78;100408.34;5064362;28;45497;-61
2022/11/06 08:29:16;;;;;;;;;4.00;4.00;;;;;11.17;65.05;100406.56;5065381;28;45474;-61
2022/11/06 08:31:41;;;;;;;;;3.00;3.00;;;;;11.16;65.83;100408.34;5073231;28;45485;-61
2022/11/06 08:34:07;;;;;;;;;4.33;3.67;;;;;11.16;66.22;100396.97;5075704;27;45395;-61
2022/11/06 08:36:40;;;;;;;;;5.33;4.00;;;;;11.15;66.07;100397.88;5074443;28;46804;-61
2022/11/06 08:39:05;;;;;;;;;5.00;5.00;;;;;11.14;66.25;100402.28;5070631;28;45489;-61
2022/11/06 08:41:31;;;;;;;;;4.67;4.00;;;;;11.15;66.97;100400.50;5075676;28;47682;-61
2022/11/06 08:43:56;;;;;;;;;4.00;4.00;;;;;11.12;66.94;100405.91;5075369;28;45528;-62
2022/11/06 08:46:21;;;;;;;;;5.00;4.00;;;;;11.12;67.48;100406.75;5076479;28;45471;-61
2022/11/06 08:48:47;;;;;;;;;9.67;6.00;;;;;11.13;67.72;100405.84;5069036;28;54341;-61
2022/11/06 08:51:12;;;;;;;;;4.00;3.00;;;;;11.14;66.82;100404.91;5074554;28;47401;-63
2022/11/06 08:53:37;;;;;;;;;6.00;6.00;;;;;11.12;67.43;100412.00;5075087;28;45434;-63
2022/11/06 08:56:03;;;;;;;;;9.33;7.00;;;;;11.13;68.17;100413.75;5075490;28;45374;-63
2022/11/06 08:58:29;;;;;;;;;7.67;7.67;;;;;11.16;68.12;100407.50;5076230;28;45421;-62
2022/11/06 09:00:54;;;;;;;;;26.25;23.75;;;;;11.17;67.66;100407.41;5069907;28;45391;-62
2022/11/06 09:03:20;;;;;;;;;6.67;5.33;;;;;11.19;68.53;100405.59;5074610;28;53622;-60
2022/11/06 09:05:45;;;;;;;;;7.00;7.00;;;;;11.20;68.53;100406.44;5073270;28;45627;-61
2022/11/06 09:08:11;;;;;;;;;5.00;5.00;;;;;11.16;67.48;100402.22;5070191;28;46077;-61
2022/11/06 09:10:38;;;;;;;;;5.00;5.00;;;;;11.11;68.14;100391.88;5076197;28;45522;-61
2022/11/06 09:13:04;;;;;;;;;5.00;5.00;;;;;11.14;67.99;100396.16;5069409;28;45567;-61
2022/11/06 09:15:29;;;;;;;;;6.00;5.00;;;;;11.09;68.01;100385.81;5076147;28;45548;-61
2022/11/06 09:17:54;;;;;;;;;5.00;5.00;;;;;11.11;69.27;100381.34;5072912;28;46290;-61
2022/11/06 09:20:21;;;;;;;;;7.67;6.67;;;;;11.08;69.15;100378.84;5061541;28;45444;-62
2022/11/06 09:22:47;;;;;;;;;8.00;7.33;;;;;11.03;68.60;100373.78;5076044;28;45426;-61
2022/11/06 09:25:13;;;;;;;;;6.00;6.00;;;;;11.03;68.85;100359.75;5072112;28;45430;-61
2022/11/06 09:27:50;;;;;;;;;7.00;7.00;;;;;11.02;70.55;100352.81;5074976;28;45528;-61
2022/11/06 09:30:18;;;;;;;;;7.33;7.33;;;;;11.03;69.70;100336.94;5075633;28;45407;-61
2022/11/06 09:32:56;;;;;;;;;6.00;6.00;;;;;11.01;69.76;100327.38;5076071;28;45444;-61
2022/11/06 09:35:24;;;;;;;;;8.00;6.33;;;;;10.97;70.42;100325.81;5078018;28;45450;-61
2022/11/06 09:37:49;;;;;;;;;6.00;6.00;;;;;10.97;69.95;100324.03;5079245;28;45367;-61
2022/11/06 09:40:30;;;;;;;;;6.33;6.33;;;;;10.94;70.45;100323.31;5079156;28;45447;-61
2022/11/06 09:43:10;;;;;;;;;5.00;5.00;;;;;10.89;70.64;100320.00;5079492;28;45432;-61
2022/11/06 09:45:38;;;;;;;;;5.33;5.33;;;;;10.92;70.05;100315.47;5079407;28;45337;-61
2022/11/06 09:48:19;;;;;;;;;8.00;7.00;;;;;10.97;71.45;100320.56;5079416;28;46125;-61
2022/11/06 09:50:57;;;;;;;;;8.00;8.00;;;;;10.98;70.24;100311.72;5079200;28;45367;-61
2022/11/06 09:53:33;;;;;;;;;5.00;5.00;;;;;11.01;70.37;100322.13;5061088;28;45494;-61
2022/11/06 09:56:00;;;;;;;;;8.67;8.33;;;;;11.03;70.65;100312.41;5076223;28;45484;-62
2022/11/06 09:58:32;;;;;;;;;8.00;7.00;;;;;11.08;70.15;100320.97;5075070;28;46484;-67
2022/11/06 10:01:04;;;;;;;;;10.00;7.67;;;;;11.08;70.68;100313.06;5076307;28;45475;-63
2022/11/06 10:03:40;;;;;;;;;11.33;7.00;;;;;11.11;70.42;100309.44;5071901;28;45796;-62
2022/11/06 10:06:05;;;;;;;;;5.67;5.67;;;;;11.13;70.77;100304.97;5073082;28;45462;-62
2022/11/06 10:08:31;;;;;;;;;6.00;6.00;;;;;11.11;69.70;100301.56;5079386;28;45406;-66
2022/11/06 10:11:15;;;;;;;;;8.67;7.00;;;;;11.07;70.90;100306.09;5078195;28;45374;-67
2022/11/06 10:14:12;;;;;;;;;7.67;6.33;;;;;11.06;71.07;100301.72;5079145;27;45320;-66
2022/11/06 10:16:43;;;;;;;;;6.67;5.00;;;;;11.05;71.74;100294.78;5058270;28;45590;-65
2022/11/06 10:19:20;;;;;;;;;6.67;5.67;;;;;11.05;71.44;100292.13;5075527;28;46325;-61
2022/11/06 10:22:06;;;;;;;;;8.00;7.00;;;;;11.04;70.65;100295.66;5072529;28;45407;-63
2022/11/06 10:24:47;;;;;;;;;6.00;6.00;;;;;11.01;71.06;100294.03;5078858;28;45754;-62
2022/11/06 10:27:32;;;;;;;;;9.00;7.67;;;;;11.01;70.84;100301.91;5078400;28;45533;-62
2022/11/06 10:30:12;;;;;;;;;10.67;10.00;;;;;11.04;71.16;100293.03;5078537;28;45740;-64
2022/11/06 10:33:07;;;;;;;;;10.67;8.67;;;;;11.04;69.81;100295.66;5078299;28;45414;-63
2022/11/06 10:36:02;;;;;;;;;8.00;8.00;;;;;11.02;71.33;100297.53;5078685;28;45446;-62
2022/11/06 10:38:33;;;;;;;;;9.33;9.33;;;;;11.03;70.99;100307.97;5077071;28;45575;-63
2022/11/06 10:41:00;;;;;;;;;6.67;6.00;;;;;11.04;71.39;100309.72;5077333;28;46666;-63
2022/11/06 10:43:26;;;;;;;;;9.00;9.00;;;;;11.05;70.92;100315.81;5077567;28;45649;-63
2022/11/06 10:46:00;;;;;;;;;10.00;10.00;;;;;11.03;71.80;100301.88;5077523;28;45433;-65
2022/11/06 10:48:31;;;;;;;;;10.00;10.00;;;;;11.03;72.28;100293.97;5078626;28;45404;-65
2022/11/06 10:51:26;;;;;;;;;9.67;9.67;;;;;11.09;71.38;100293.72;5076642;28;45961;-62
2022/11/06 10:54:37;;;;;;;;;12.33;9.00;;;;;11.08;71.04;100289.38;5063982;28;45497;-61
2022/11/06 10:57:02;;;;;;;;;7.67;7.67;;;;;11.08;72.26;100281.47;5074562;28;45509;-59
2022/11/06 10:59:28;;;;;;;;;8.67;8.67;;;;;11.04;71.74;100270.25;5077619;28;45505;-62
2022/11/06 11:01:53;;;;;;;;;10.00;10.00;;;;;10.98;71.64;100264.38;5074850;28;46227;-61
2022/11/06 11:04:19;;;;;;;;;10.00;8.00;;;;;11.00;72.15;100259.91;5077815;28;45465;-58
2022/11/06 11:06:44;;;;;;;;;9.67;9.00;;;;;11.00;72.38;100254.63;5076834;28;45738;-62
2022/11/06 11:09:25;;;;;;;;;8.00;8.00;;;;;11.01;72.58;100256.34;5073245;28;45676;-63
2022/11/06 11:11:50;;;;;;;;;13.00;9.33;;;;;11.02;72.32;100252.81;5075389;28;45579;-63
2022/11/06 11:14:23;;;;;;;;;10.00;9.00;;;;;11.02;71.79;100261.53;5077892;27;45494;-63
2022/11/06 11:16:48;;;;;;;;;9.00;8.67;;;;;11.04;72.54;100256.19;5077855;28;45421;-63
2022/11/06 11:19:14;;;;;;;;;12.67;11.67;;;;;11.10;71.67;100255.97;5077996;28;45468;-63
2022/11/06 11:21:53;;;;;;;;;14.33;11.67;;;;;11.10;71.56;100255.13;5077890;28;45442;-63
2022/11/06 11:24:18;;;;;;;;;12.67;11.67;;;;;11.10;72.30;100253.31;5075743;28;45501;-62
2022/11/06 11:26:46;;;;;;;;;9.00;9.00;;;;;11.09;72.35;100251.59;5076615;28;45462;-63
2022/11/06 11:29:21;;;;;;;;;15.00;11.33;;;;;11.08;71.86;100252.53;5077214;28;45537;-55
2022/11/06 11:31:51;;;;;;;;;11.67;8.67;;;;;11.06;72.12;100234.16;5076536;28;45475;-53
2022/11/06 11:34:26;;;;;;;;;9.00;9.00;;;;;11.05;73.05;100234.25;5074728;28;45513;-56
2022/11/06 11:36:59;;;;;;;;;11.00;11.00;;;;;11.05;72.12;100221.94;5059579;28;45436;-58
2022/11/06 11:39:29;;;;;;;;;9.67;9.67;;;;;11.03;72.97;100209.75;5077381;28;45351;-53
2022/11/06 11:42:14;;;;;;;;;11.67;11.67;;;;;10.97;73.43;100191.63;5077142;28;47105;-56
2022/11/06 11:44:40;;;;;;;;;10.33;10.33;;;;;10.96;72.75;100182.88;5075378;28;45547;-51
2022/11/06 11:47:19;;;;;;;;;20.00;16.67;;;;;10.95;73.34;100182.94;5076035;28;45495;-63
2022/11/06 11:49:44;;;;;;;;;12.50;12.00;;;;;10.99;73.49;100185.38;5072691;28;45504;-55
2022/11/06 11:52:15;;;;;;;;;13.00;10.67;;;;;11.01;73.06;100177.38;5077108;28;45481;-54